Como, MS (38619)

10:06 PM CST en Enero 31, 2015 (GMT -0600)
BHQ | Change Station
CLOSE
Current Station
Estación meteorológica personal
Location: Como, MS
Altura: 367 ft
Estaciones meteorológicas cercanas

Alt 367 ft 34.52 °N, 89.94 °W | Updated 3 minutes ago

Parcialmente nublado
Parcialmente nublado
48.9 ° F
Sensación térmica 46 ° F
N
5.8
Viento Variable Viento desde SO

Hoy
Alta -- | Baja -- ° F
--% Posibilidad de precipitaciones
Ayer
Alta -- | Baja -- ° F
Precip. -- pul
6:58 AM 5:28 PM
Gibosa creciente, 93% visible
Presión 30.16 pul
Visibilidad 10.0 Millas
Nubes Despejado
Vientos helados 46 ° F
Punto de rocío 28 ° F
Humedad 45%
Precipitaciones 0.00 pul
Espesor de la nieve No disponible.
UV 0 de una escala de 12
Polen 2.40 de una escala de 12
Calidad del aire No disponible.
Flu Activity No disponible.
METAR KUOX 010335Z AUTO 15006KT 10SM CLR 08/M05 A3016 RMK AO2 PWINO PNO

More Conditions Fewer Conditions

Presión 30.16 pul
Visibilidad 10.0 Millas
Nubes Despejado
Vientos helados 46 ° F
Punto de rocío 28 ° F
Humedad 45%
Precipitaciones 0.00 pul
Espesor de la nieve No disponible.
UV 0 de una escala de 12
Polen 2.40 de una escala de 12
Calidad del aire No disponible.
Flu Activity No disponible.
METAR KUOX 010335Z AUTO 15006KT 10SM CLR 08/M05 A3016 RMK AO2 PWINO PNO

More Conditions Fewer Conditions

10-Day Weather Forecast

Almanac

Astronomía

Jan. 31, 2015 Salida Puesta
Hora real
Crepúsculo civil
Crepúsculo náutico
Crepúsculo astronómico
Luna
Horas de luz
Horas de luz
Tomorrow will be .
, % of the Moon is Illuminated

Extremos de hoy

Máximos del estado Bajos del estado

Community

WunderPhotos

Upload Photos

1,792,300 ¡fotos cargadas!

WunderBlogs® & News

Nearby

Calidad del aire

  Calidad del aire Índice AQ Contaminante
Not available.

Grosos de nieve

Estación Profundido Altura

Actividad de terremotos

Ciudad Distance Mag. Tiempo y dato
Magnitud mínima muestra es 2,5.

Temperaturas de aguas costeras

Lugar Temperatura

Estaciones meteorológicas cercanas